Time;durP1;ratioP1;P1;durP2;ratioP2;P2;SDS_P1;SDS_P2;PMS_P1;PMS_P2;Temp;Humidity;BMP_temperature;BMP_pressure;BME280_temperature;BME280_humidity;BME280_pressure;Samples;Min_cycle;Max_cycle;Signal;HPM_P1;HPM_P2
2022/06/15 00:00:11;;;;;;;1.40;1.30;;;10.50;1.40;;;11.83;100.00;95587.78;647371;216;42143;-74
2022/06/15 00:02:53;;;;;;;1.07;0.97;;;10.50;1.40;;;11.83;100.00;95584.36;645669;212;31647;-74
2022/06/15 00:05:35;;;;;;;1.13;1.00;;;10.60;1.40;;;11.86;100.00;95581.42;646256;212;42116;-74
2022/06/15 00:08:17;;;;;;;1.03;0.77;;;10.70;1.40;;;11.85;100.00;95580.13;647292;216;31584;-74
2022/06/15 00:10:58;;;;;;;3.30;2.00;;;10.70;1.40;;;11.78;100.00;95582.35;647768;216;31577;-74
2022/06/15 00:13:40;;;;;;;2.10;1.50;;;10.60;1.40;;;11.72;100.00;95579.61;645529;212;31571;-74
2022/06/15 00:16:22;;;;;;;1.40;1.30;;;10.40;1.40;;;11.65;100.00;95578.00;646647;213;42296;-74
2022/06/15 00:19:04;;;;;;;1.10;1.00;;;10.30;1.40;;;11.69;100.00;95575.84;646365;216;31573;-74
2022/06/15 00:24:19;;;;;;;1.40;1.20;;;10.30;1.40;;;11.55;100.00;95576.67;646424;214;42189;-74
2022/06/15 00:27:05;;;;;;;1.70;1.37;;;10.10;1.40;;;11.47;100.00;95578.52;646283;216;31557;-74
2022/06/15 00:29:46;;;;;;;1.80;1.70;;;10.10;1.40;;;11.36;100.00;95575.06;646827;216;31882;-74
2022/06/15 00:32:28;;;;;;;1.80;1.50;;;10.00;1.40;;;11.31;100.00;95569.25;646633;212;32033;-74
2022/06/15 00:35:57;;;;;;;1.10;0.60;;;10.00;1.40;;;11.43;100.00;95572.25;647893;216;31590;-75
2022/06/15 00:38:40;;;;;;;1.80;1.65;;;10.00;1.40;;;11.37;100.00;95569.28;646560;216;31618;-74
2022/06/15 00:41:26;;;;;;;1.53;1.40;;;10.00;1.40;;;11.30;100.00;95566.92;647305;212;31591;-74
2022/06/15 00:44:35;;;;;;;1.37;1.00;;;10.00;1.40;;;11.30;100.00;95563.83;644908;212;31568;-75
2022/06/15 00:47:22;;;;;;;1.20;1.10;;;10.00;1.40;;;11.29;100.00;95563.75;647510;216;31700;-74
2022/06/15 00:50:06;;;;;;;1.70;1.30;;;10.00;1.40;;;11.25;100.00;95557.76;646918;212;42222;-73
2022/06/15 00:52:53;;;;;;;1.53;1.13;;;10.00;1.40;;;11.31;100.00;95555.62;640867;212;32008;-74
2022/06/15 00:55:35;;;;;;;2.20;1.50;;;10.10;1.40;;;11.31;100.00;95562.08;647551;216;31592;-74
2022/06/15 00:58:16;;;;;;;1.33;1.23;;;10.00;1.40;;;11.31;100.00;95551.80;647607;216;31737;-74
2022/06/15 01:01:01;;;;;;;2.70;1.13;;;10.10;1.40;;;11.24;100.00;95550.23;645715;216;31523;-73
2022/06/15 01:03:43;;;;;;;2.37;1.00;;;10.00;1.40;;;11.22;100.00;95549.62;619750;226;32059;-74
2022/06/15 01:06:38;;;;;;;1.17;1.02;;;9.90;1.40;;;11.16;100.00;95547.27;646155;212;31579;-73
2022/06/15 01:12:03;;;;;;;1.12;1.02;;;10.00;1.40;;;11.45;100.00;95548.32;647187;216;32479;-74
2022/06/15 01:15:08;;;;;;;1.30;1.20;;;10.10;1.40;;;11.35;100.00;95547.40;647004;216;31574;-74
2022/06/15 01:17:56;;;;;;;1.60;0.90;;;9.90;1.40;;;11.13;100.00;95548.34;647427;212;31516;-74
2022/06/15 01:20:47;;;;;;;1.00;0.90;;;9.80;1.40;;;11.10;100.00;95542.28;646940;216;31558;-73
2022/06/15 01:23:51;;;;;;;1.80;1.10;;;9.80;1.40;;;11.04;100.00;95536.70;647265;212;31629;-73
2022/06/15 01:29:47;;;;;;;1.50;1.30;;;9.70;1.40;;;11.03;100.00;95537.97;647051;216;42152;-75
2022/06/15 01:32:35;;;;;;;1.90;1.80;;;9.70;1.40;;;10.93;100.00;95536.44;646259;212;31583;-74
2022/06/15 01:36:04;;;;;;;1.50;1.40;;;9.60;1.40;;;10.79;100.00;95530.61;647595;216;31620;-74
2022/06/15 01:38:52;;;;;;;0.70;0.70;;;9.50;1.40;;;10.76;100.00;95533.74;647968;216;31649;-75
2022/06/15 01:41:47;;;;;;;1.20;1.10;;;9.40;1.40;;;10.65;100.00;95532.06;619586;222;31886;-76
2022/06/15 01:44:36;;;;;;;1.30;0.90;;;9.30;1.40;;;10.60;100.00;95526.86;647440;216;31503;-75
2022/06/15 01:47:19;;;;;;;1.05;1.05;;;9.30;1.40;;;10.58;100.00;95524.97;646321;216;31531;-74
2022/06/15 01:52:38;;;;;;;2.00;1.20;;;9.30;1.40;;;10.58;100.00;95523.45;641654;212;32501;-75
2022/06/15 01:55:26;;;;;;;2.10;1.70;;;9.60;1.40;;;10.71;100.00;95523.80;648528;216;42163;-74
2022/06/15 01:58:08;;;;;;;2.00;1.10;;;9.60;1.40;;;10.63;100.00;95528.91;646912;216;31525;-74
2022/06/15 02:00:56;;;;;;;1.57;1.23;;;9.60;1.40;;;10.54;100.00;95525.65;646966;216;31527;-74
2022/06/15 02:03:40;;;;;;;0.90;0.90;;;9.50;1.40;;;10.46;100.00;95517.91;645836;216;31742;-74
2022/06/15 02:06:33;;;;;;;1.58;0.80;;;9.30;1.40;;;10.40;100.00;95523.13;646749;216;31505;-74
2022/06/15 02:09:23;;;;;;;0.80;0.63;;;9.20;1.40;;;10.32;100.00;95514.25;648138;216;31505;-74
2022/06/15 02:12:08;;;;;;;1.50;1.20;;;9.10;1.40;;;10.32;100.00;95512.78;646780;212;31497;-74
2022/06/15 02:14:51;;;;;;;0.80;0.70;;;9.10;1.40;;;10.23;100.00;95511.56;646135;216;32187;-74
2022/06/15 02:17:33;;;;;;;1.92;0.90;;;9.00;1.40;;;10.21;100.00;95506.20;644990;212;31564;-75
2022/06/15 02:20:16;;;;;;;1.70;1.20;;;9.10;1.40;;;10.28;100.00;95504.73;645938;216;31594;-76
2022/06/15 02:22:58;;;;;;;1.80;1.60;;;9.20;1.40;;;10.37;100.00;95494.05;647126;212;31543;-75
2022/06/15 02:25:40;;;;;;;1.27;1.17;;;9.50;1.40;;;10.38;100.00;95490.83;647343;216;31535;-75
2022/06/15 02:28:21;;;;;;;1.93;1.30;;;9.40;1.40;;;10.42;100.00;95494.73;646713;212;33338;-75
2022/06/15 02:31:03;;;;;;;0.70;0.70;;;9.30;1.40;;;10.30;100.00;95494.18;632047;221;31718;-75
2022/06/15 02:35:56;;;;;;;1.70;1.60;;;8.90;1.40;;;10.06;100.00;95493.73;646712;216;31553;-74
2022/06/15 02:38:38;;;;;;;1.33;1.08;;;8.80;1.40;;;9.94;100.00;95490.91;646814;216;33121;-75
2022/06/15 02:41:20;;;;;;;2.00;0.90;;;8.70;1.40;;;9.90;100.00;95488.81;646631;216;31669;-74
2022/06/15 02:44:02;;;;;;;1.30;0.80;;;8.60;1.40;;;9.88;100.00;95481.92;646577;216;31552;-74
2022/06/15 02:46:44;;;;;;;1.17;1.08;;;8.60;1.40;;;9.87;100.00;95483.07;648212;216;31837;-74
2022/06/15 02:49:25;;;;;;;1.27;1.17;;;8.60;1.40;;;9.85;100.00;95481.84;645585;212;31682;-74
2022/06/15 02:52:07;;;;;;;0.93;0.63;;;8.60;1.40;;;9.78;100.00;95482.07;645320;212;32131;-74
2022/06/15 02:54:49;;;;;;;1.77;1.30;;;8.60;1.40;;;9.81;100.00;95487.53;646755;216;31626;-74
2022/06/15 02:57:30;;;;;;;1.20;1.00;;;8.50;1.40;;;9.81;100.00;95480.00;646334;216;31799;-74
2022/06/15 03:00:16;;;;;;;1.07;1.07;;;8.50;1.40;;;9.80;100.00;95476.88;646923;216;31826;-74
2022/06/15 03:02:57;;;;;;;0.60;0.60;;;8.50;1.40;;;9.80;100.00;95481.55;648170;216;42103;-74
2022/06/15 03:08:13;;;;;;;1.60;1.40;;;8.60;1.40;;;9.79;100.00;95476.84;619039;222;31891;-74
2022/06/15 03:10:55;;;;;;;1.27;1.00;;;8.60;1.40;;;9.83;100.00;95472.48;618900;226;31893;-74
2022/06/15 03:13:41;;;;;;;0.70;0.70;;;8.60;1.40;;;9.82;100.00;95470.20;647145;216;31512;-75
2022/06/15 03:16:27;;;;;;;2.28;1.40;;;8.60;1.40;;;9.77;100.00;95474.61;635014;222;31846;-84
2022/06/15 03:19:10;;;;;;;1.00;1.00;;;8.50;1.40;;;9.81;100.00;95471.51;646301;216;32158;-75
2022/06/15 03:21:52;;;;;;;1.20;1.00;;;8.50;1.40;;;9.77;100.00;95468.93;645395;216;31524;-74
2022/06/15 03:24:34;;;;;;;1.30;1.03;;;8.50;1.40;;;9.72;100.00;95469.02;646605;216;32182;-74
2022/06/15 03:27:18;;;;;;;1.37;1.27;;;8.50;1.40;;;9.74;100.00;95465.51;647552;216;31904;-75
2022/06/15 03:29:58;;;;;;;2.35;0.95;;;8.50;1.40;;;9.65;100.00;95463.59;648517;212;31661;-75
2022/06/15 03:32:39;;;;;;;1.40;0.80;;;8.40;1.40;;;9.68;100.00;95469.31;647054;216;31553;-74
2022/06/15 03:35:51;;;;;;;1.30;1.00;;;8.40;1.40;;;9.57;100.00;95465.63;619296;226;31945;-75
2022/06/15 03:38:32;;;;;;;4.60;1.47;;;8.40;1.40;;;9.65;100.00;95467.55;646568;216;31531;-74
2022/06/15 03:41:14;;;;;;;1.50;1.00;;;8.50;1.40;;;9.67;100.00;95464.77;647177;216;31548;-76
2022/06/15 03:43:56;;;;;;;1.20;0.70;;;8.50;1.40;;;9.64;100.00;95468.48;647526;216;31508;-75
2022/06/15 03:46:37;;;;;;;1.33;1.23;;;8.40;1.40;;;9.65;100.00;95467.97;646266;216;31547;-75
2022/06/15 03:49:19;;;;;;;1.10;0.70;;;8.40;1.40;;;9.61;100.00;95473.80;648062;212;31531;-74
2022/06/15 03:52:01;;;;;;;1.50;1.10;;;8.30;1.40;;;9.62;100.00;95474.53;644602;216;31691;-73
2022/06/15 03:54:42;;;;;;;3.20;1.23;;;8.40;1.40;;;9.74;100.00;95473.09;647599;216;31540;-74
2022/06/15 03:57:24;;;;;;;1.40;0.90;;;8.50;1.40;;;9.78;100.00;95467.30;645473;216;31721;-75
2022/06/15 04:00:08;;;;;;;3.30;1.63;;;8.60;1.40;;;9.78;100.00;95473.78;647671;212;31553;-74
2022/06/15 04:02:50;;;;;;;1.50;1.20;;;8.60;1.40;;;9.84;100.00;95473.45;646934;216;31506;-74
2022/06/15 04:10:53;;;;;;;2.08;1.75;;;8.90;1.40;;;10.26;100.00;95477.04;646249;216;31511;-74
2022/06/15 04:13:38;;;;;;;1.40;1.30;;;9.10;1.40;;;10.48;100.00;95475.25;646828;212;32030;-75
2022/06/15 04:16:20;;;;;;;1.40;1.30;;;9.30;1.40;;;10.68;100.00;95484.77;647968;216;32159;-75
2022/06/15 04:19:08;;;;;;;2.47;1.60;;;9.50;1.40;;;10.94;100.00;95488.18;647611;216;31571;-75
2022/06/15 04:24:22;;;;;;;2.20;1.48;;;9.80;1.40;;;11.10;100.00;95488.67;617658;226;32234;-74
2022/06/15 04:27:04;;;;;;;0.83;0.83;;;9.90;1.40;;;11.26;100.00;95487.81;645678;216;31916;-74
2022/06/15 04:29:46;;;;;;;1.70;1.30;;;10.00;1.40;;;11.50;100.00;95489.81;647477;212;31557;-75
2022/06/15 04:32:28;;;;;;;3.20;1.70;;;10.20;1.40;;;11.72;100.00;95492.59;618939;226;32078;-74
2022/06/15 04:35:51;;;;;;;1.30;1.20;;;10.40;1.40;;;11.96;100.00;95493.55;646566;216;31511;-74
2022/06/15 04:38:32;;;;;;;1.90;1.07;;;10.60;1.40;;;12.12;100.00;95494.75;645270;216;42088;-74
2022/06/15 04:41:14;;;;;;;3.40;1.70;;;10.80;1.40;;;12.23;100.00;95491.31;648771;216;31550;-74
2022/06/15 04:43:56;;;;;;;1.40;1.30;;;10.90;1.40;;;12.33;100.00;95494.94;646854;216;31546;-73
2022/06/15 04:46:37;;;;;;;2.10;1.67;;;11.00;1.40;;;12.53;100.00;95499.02;646472;216;32749;-74
2022/06/15 04:49:19;;;;;;;2.03;1.80;;;11.20;1.40;;;12.76;100.00;95495.58;647370;216;32183;-74
2022/06/15 04:52:01;;;;;;;2.42;2.22;;;11.40;1.40;;;12.88;100.00;95489.92;644818;216;42386;-74
2022/06/15 04:54:43;;;;;;;1.63;1.53;;;11.50;1.40;;;13.30;100.00;95487.08;645325;216;31548;-74
2022/06/15 04:57:24;;;;;;;1.80;1.70;;;11.80;1.40;;;13.63;100.00;95493.09;647089;212;32454;-74
2022/06/15 05:00:08;;;;;;;5.90;2.25;;;12.10;1.40;;;13.97;100.00;95494.77;646395;216;31764;-73
2022/06/15 05:02:49;;;;;;;2.70;1.90;;;12.40;1.40;;;14.18;100.00;95497.94;647250;212;31574;-73
2022/06/15 05:05:31;;;;;;;2.95;2.30;;;12.60;1.40;;;14.46;100.00;95498.53;646595;216;35203;-73
2022/06/15 05:08:13;;;;;;;2.10;1.90;;;12.90;1.40;;;14.41;100.00;95499.77;620456;226;32071;-74
2022/06/15 05:11:00;;;;;;;2.87;1.80;;;12.90;1.40;;;14.33;100.00;95498.93;645455;216;41078;-74
2022/06/15 05:13:39;;;;;;;2.30;2.10;;;13.00;1.40;;;14.82;100.00;95500.64;646094;216;32636;-73
2022/06/15 05:16:21;;;;;;;5.12;2.45;;;13.20;1.40;;;14.84;100.00;95506.77;647286;216;31584;-74
2022/06/15 05:19:06;;;;;;;3.20;2.60;;;13.30;1.40;;;14.96;100.00;95503.21;647157;216;42663;-75
2022/06/15 05:21:47;;;;;;;2.50;2.30;;;13.40;1.40;;;14.98;100.00;95501.04;646374;212;31638;-74
2022/06/15 05:24:29;;;;;;;5.03;2.30;;;13.60;1.40;;;15.21;100.00;95500.75;647093;212;31975;-76
2022/06/15 05:27:11;;;;;;;2.47;2.28;;;13.70;1.40;;;15.32;100.00;95502.09;645677;216;32103;-75
2022/06/15 05:29:52;;;;;;;2.65;1.90;;;13.90;1.40;;;15.67;100.00;95499.38;646270;213;31982;-75
2022/06/15 05:35:51;;;;;;;3.20;1.87;;;14.30;1.40;;;15.97;100.00;95493.77;645474;212;31579;-74
2022/06/15 05:38:33;;;;;;;3.03;1.80;;;14.30;1.40;;;15.87;100.00;95500.50;647956;216;31529;-74
2022/06/15 05:41:15;;;;;;;2.33;2.13;;;14.30;1.40;;;15.87;100.00;95503.63;645550;216;43829;-74
2022/06/15 05:44:15;;;;;;;4.28;1.90;;;14.30;1.40;;;15.84;100.00;95504.49;646598;216;31736;-74
2022/06/15 05:46:56;;;;;;;1.67;1.55;;;14.20;1.40;;;15.96;100.00;95502.33;647064;216;31552;-74
2022/06/15 05:49:40;;;;;;;5.35;2.00;;;14.40;1.40;;;15.96;100.00;95508.81;647020;216;31532;-74
2022/06/15 05:52:22;;;;;;;3.28;2.08;;;14.50;1.40;;;15.97;100.00;95510.27;627659;222;31881;-74
2022/06/15 05:55:12;;;;;;;2.17;1.40;;;14.60;1.40;;;16.14;100.00;95504.46;648280;216;31602;-74
2022/06/15 05:57:54;;;;;;;2.35;1.90;;;14.70;1.40;;;16.21;100.00;95503.05;645446;212;31533;-74
2022/06/15 06:00:35;;;;;;;3.00;1.90;;;14.90;1.40;;;16.24;100.00;95500.16;646157;216;31576;-74
2022/06/15 06:03:18;;;;;;;3.17;1.90;;;15.00;1.40;;;16.42;100.00;95499.67;647394;212;31612;-74
2022/06/15 06:05:59;;;;;;;1.90;1.58;;;15.20;1.40;;;16.49;100.00;95502.08;619146;226;43473;-74
2022/06/15 06:08:40;;;;;;;2.20;1.70;;;15.40;1.40;;;16.58;100.00;95499.81;647392;212;31610;-73
2022/06/15 06:11:22;;;;;;;1.50;1.40;;;15.30;1.40;;;16.72;100.00;95502.77;647812;212;31608;-74
2022/06/15 06:14:04;;;;;;;3.93;2.47;;;15.60;1.40;;;16.91;100.00;95505.66;645561;216;32137;-74
2022/06/15 06:16:46;;;;;;;1.50;1.40;;;15.70;1.40;;;16.96;100.00;95504.58;647027;216;31547;-74
2022/06/15 06:19:27;;;;;;;2.83;1.60;;;15.60;1.40;;;17.01;100.00;95511.80;647304;216;31667;-75
2022/06/15 06:22:11;;;;;;;3.22;1.33;;;15.60;1.40;;;17.06;100.00;95509.34;646598;216;31548;-74
2022/06/15 06:24:53;;;;;;;1.60;1.50;;;15.70;1.40;;;17.20;100.00;95507.09;647331;212;31558;-74
2022/06/15 06:27:35;;;;;;;3.85;1.90;;;15.90;1.40;;;17.36;100.00;95507.42;646765;212;31538;-74
2022/06/15 06:30:22;;;;;;;3.90;1.60;;;16.10;1.40;;;17.64;100.00;95504.21;647931;216;31551;-74
2022/06/15 06:35:57;;;;;;;1.60;1.50;;;16.80;1.40;;;17.83;100.00;95507.81;646463;216;32134;-74
2022/06/15 06:38:39;;;;;;;2.72;1.50;;;16.80;1.40;;;17.94;100.00;95505.63;646173;216;31711;-74
2022/06/15 06:41:26;;;;;;;1.83;1.62;;;16.70;1.40;;;18.05;100.00;95504.30;647588;216;31863;-74
2022/06/15 06:44:08;;;;;;;4.20;1.80;;;16.70;1.40;;;18.22;100.00;95506.03;647205;212;31592;-74
2022/06/15 06:46:56;;;;;;;1.70;1.45;;;17.00;1.40;;;18.35;100.00;95503.10;646010;216;31606;-74
2022/06/15 06:49:37;;;;;;;2.30;1.40;;;17.30;1.40;;;18.53;100.00;95505.34;647087;216;31604;-74
2022/06/15 06:52:19;;;;;;;1.50;1.40;;;17.30;1.40;;;18.65;100.00;95510.37;643352;216;31697;-75
2022/06/15 06:55:01;;;;;;;1.60;1.40;;;17.60;1.40;;;18.88;100.00;95510.95;647990;216;31544;-74
2022/06/15 06:57:42;;;;;;;2.17;1.62;;;17.70;1.40;;;19.09;100.00;95510.37;646684;212;32085;-75
2022/06/15 07:00:25;;;;;;;2.15;1.70;;;18.10;1.40;;;19.31;100.00;95511.00;645888;216;31989;-74
2022/06/15 07:03:07;;;;;;;1.97;1.50;;;18.20;1.40;;;19.43;100.00;95507.13;646431;216;31614;-74
2022/06/15 07:05:49;;;;;;;2.80;1.48;;;18.40;1.40;;;19.61;100.00;95510.41;646626;216;31679;-73
2022/06/15 07:08:31;;;;;;;4.50;1.70;;;18.60;1.40;;;19.73;100.00;95508.42;619402;226;32002;-75
2022/06/15 07:11:17;;;;;;;3.87;1.90;;;18.70;1.40;;;19.95;100.00;95512.22;620306;226;31856;-74
2022/06/15 07:13:59;;;;;;;1.87;1.75;;;18.90;1.40;;;20.06;100.00;95507.55;645894;216;31553;-74
2022/06/15 07:16:41;;;;;;;2.22;1.50;;;18.80;1.40;;;20.12;100.00;95508.63;646137;216;31560;-74
2022/06/15 07:19:23;;;;;;;1.60;1.50;;;18.80;1.40;;;20.27;100.00;95513.05;619464;226;32134;-74
2022/06/15 07:22:05;;;;;;;4.75;2.00;;;19.10;1.40;;;20.38;100.00;95513.78;647397;212;32086;-75
2022/06/15 07:24:47;;;;;;;2.00;1.50;;;19.10;1.40;;;20.57;100.00;95516.12;620190;226;31969;-74
2022/06/15 07:27:32;;;;;;;3.10;2.00;;;19.40;1.40;;;20.76;100.00;95514.05;619401;226;33962;-75
2022/06/15 07:30:15;;;;;;;1.80;1.60;;;19.60;1.40;;;20.74;100.00;95513.66;645767;216;31625;-75
2022/06/15 07:32:57;;;;;;;2.28;1.70;;;19.60;1.40;;;20.83;100.00;95516.09;647267;216;32070;-75
2022/06/15 07:35:51;;;;;;;2.37;1.67;;;19.50;1.40;;;20.95;100.00;95510.09;646454;216;31627;-74
2022/06/15 07:38:32;;;;;;;1.80;1.60;;;19.80;1.40;;;21.23;100.00;95515.06;647327;216;31590;-74
2022/06/15 07:41:14;;;;;;;2.20;1.37;;;20.10;1.40;;;21.27;100.00;95515.95;646475;216;31619;-74
2022/06/15 07:43:59;;;;;;;1.73;1.60;;;20.00;1.40;;;21.33;100.00;95513.92;647275;216;32110;-74
2022/06/15 07:46:41;;;;;;;1.62;1.52;;;20.10;1.40;;;21.64;100.00;95517.45;646292;216;32194;-75
2022/06/15 07:52:13;;;;;;;3.50;1.83;;;20.40;1.40;;;21.97;100.00;95510.68;644076;216;32018;-74
2022/06/15 07:54:54;;;;;;;2.42;1.73;;;20.80;1.40;;;22.26;100.00;95508.56;647163;212;31850;-75
2022/06/15 07:57:36;;;;;;;2.40;1.80;;;21.20;1.40;;;22.23;100.00;95502.05;646990;216;31655;-74
2022/06/15 08:00:18;;;;;;;2.30;1.60;;;21.10;1.40;;;22.48;100.00;95506.98;647217;216;31651;-74
2022/06/15 08:03:01;;;;;;;2.17;1.98;;;21.30;1.40;;;22.79;100.00;95502.06;645666;215;31651;-74
2022/06/15 08:05:42;;;;;;;2.87;2.33;;;21.70;1.40;;;22.79;100.00;95500.16;646751;212;31589;-74
2022/06/15 08:08:23;;;;;;;2.58;1.90;;;21.70;1.40;;;22.99;100.00;95493.94;631407;222;32064;-74
2022/06/15 08:11:05;;;;;;;2.67;1.55;;;21.80;1.40;;;22.87;100.00;95498.68;646743;216;31643;-74
2022/06/15 08:16:21;;;;;;;2.00;1.70;;;21.90;1.40;;;23.24;100.00;95490.05;645463;216;31607;-74
2022/06/15 08:19:03;;;;;;;4.47;1.98;;;22.10;1.40;;;23.42;100.00;95492.61;647595;216;31694;-74
2022/06/15 08:21:45;;;;;;;3.27;1.93;;;22.40;1.40;;;23.91;100.00;95494.92;647360;212;32175;-75
2022/06/15 08:24:26;;;;;;;2.20;2.00;;;22.70;1.40;;;23.83;97.03;95493.84;647077;212;31947;-75
2022/06/15 08:27:08;;;;;;;3.85;1.75;;;22.60;1.40;;;24.04;97.76;95492.83;618502;226;31891;-74
2022/06/15 08:29:52;;;;;;;2.10;1.73;;;22.60;1.40;;;24.04;96.82;95496.23;647481;212;42711;-74
2022/06/15 08:32:34;;;;;;;4.07;1.95;;;22.70;1.40;;;24.06;97.44;95492.70;645624;216;31571;-74
2022/06/15 08:35:51;;;;;;;3.70;2.10;;;23.00;1.40;;;24.27;92.57;95490.89;646302;216;31721;-74
2022/06/15 08:38:36;;;;;;;2.50;1.50;;;22.90;1.40;;;24.23;89.78;95488.56;647245;216;32114;-75
2022/06/15 08:43:57;;;;;;;2.22;1.40;;;23.00;1.40;;;24.26;95.22;95486.50;647143;213;31595;-74
2022/06/15 08:46:46;;;;;;;2.35;1.90;;;23.20;1.40;;;24.87;89.24;95484.72;646168;212;31618;-74
2022/06/15 08:49:43;;;;;;;2.00;1.80;;;23.60;1.40;;;25.10;89.93;95487.58;646207;216;31905;-74
2022/06/15 08:52:35;;;;;;;2.85;1.60;;;23.70;1.40;;;25.03;84.81;95490.42;615633;226;32589;-75
2022/06/15 08:55:25;;;;;;;2.10;1.90;;;23.70;1.40;;;25.22;87.97;95488.37;648047;216;31717;-74
2022/06/15 08:58:21;;;;;;;2.10;1.90;;;23.90;1.40;;;25.12;91.23;95490.16;647141;216;31661;-75
2022/06/15 09:01:05;;;;;;;2.10;1.70;;;24.20;1.40;;;25.39;89.81;95492.56;647239;216;42305;-75
2022/06/15 09:04:10;;;;;;;3.05;1.90;;;24.30;1.40;;;26.03;84.22;95492.26;647030;212;31608;-75
2022/06/15 09:07:28;;;;;;;2.28;1.70;;;24.80;1.40;;;26.34;85.37;95493.75;648149;216;31539;-75
2022/06/15 09:10:22;;;;;;;2.45;1.80;;;25.00;1.40;;;25.88;77.41;95490.75;646168;216;31792;-74
2022/06/15 09:13:11;;;;;;;2.80;1.60;;;24.60;1.40;;;26.49;82.87;95486.75;646660;216;31599;-74
2022/06/15 09:16:12;;;;;;;2.72;2.53;;;25.40;1.40;;;26.79;74.86;95488.21;648086;216;31673;-75
2022/06/15 09:19:02;;;;;;;3.10;1.70;;;25.30;1.40;;;26.73;73.91;95487.03;646774;216;31906;-74
2022/06/15 09:21:50;;;;;;;1.95;1.75;;;24.90;1.40;;;27.06;72.62;95484.09;645754;216;31553;-74
2022/06/15 09:24:31;;;;;;;2.12;1.92;;;25.70;1.40;;;26.97;70.77;95484.29;647350;216;31664;-75
2022/06/15 09:27:13;;;;;;;2.90;1.90;;;25.30;1.40;;;28.09;65.52;95479.02;646673;212;31751;-75
2022/06/15 09:29:56;;;;;;;3.62;3.08;;;27.80;1.40;;;29.43;63.96;95479.80;646723;216;31586;-74
2022/06/15 09:32:39;;;;;;;4.22;2.15;;;31.30;1.40;;;30.59;57.40;95477.34;647639;216;31532;-75
2022/06/15 09:35:52;;;;;;;3.50;2.25;;;31.80;1.40;;;30.10;53.85;95482.64;646756;216;42896;-75
2022/06/15 09:38:33;;;;;;;6.20;2.25;;;29.10;1.40;;;30.25;53.27;95483.47;645283;212;42833;-75
2022/06/15 09:41:22;;;;;;;3.90;2.37;;;30.20;1.40;;;31.74;54.65;95483.36;647522;216;31850;-75
2022/06/15 09:44:25;;;;;;;3.37;2.10;;;32.30;1.40;;;33.49;53.63;95474.41;647183;212;31758;-73
2022/06/15 09:47:25;;;;;;;2.50;2.30;;;33.60;1.40;;;34.78;48.21;95473.09;646448;216;31534;-73
2022/06/15 09:50:11;;;;;;;2.80;2.17;;;33.90;1.40;;;36.00;49.80;95469.17;647219;212;31900;-74
2022/06/15 09:53:01;;;;;;;5.40;2.53;;;34.70;1.40;;;36.44;46.84;95472.00;639900;216;31765;-77
2022/06/15 09:55:46;;;;;;;5.57;2.30;;;34.00;1.40;;;35.69;47.04;95475.39;646463;212;31623;-73
2022/06/15 09:58:28;;;;;;;2.60;2.40;;;33.10;1.40;;;36.44;49.31;95471.20;646769;216;31582;-74
2022/06/15 10:01:11;;;;;;;2.40;2.20;;;33.50;1.40;;;36.38;44.25;95472.36;646579;216;31617;-75
2022/06/15 10:03:51;;;;;;;2.58;2.37;;;33.50;1.40;;;35.69;47.81;95476.61;646236;216;42282;-75
2022/06/15 10:06:38;;;;;;;3.70;2.45;;;33.40;1.40;;;36.64;45.83;95474.00;646743;216;31640;-74
2022/06/15 10:09:23;;;;;;;3.37;2.40;;;33.80;1.40;;;38.02;42.89;95469.09;646786;213;31891;-74
2022/06/15 10:15:08;;;;;;;2.03;1.92;;;35.20;1.40;;;36.89;42.00;95467.24;647670;216;31617;-74
2022/06/15 10:17:50;;;;;;;2.28;2.10;;;33.60;1.40;;;37.60;37.28;95466.73;619609;226;32346;-74
2022/06/15 10:20:35;;;;;;;2.40;2.20;;;33.80;1.40;;;35.56;39.99;95469.03;647230;216;31828;-74
2022/06/15 10:23:20;;;;;;;2.50;2.30;;;32.20;1.40;;;34.73;41.38;95466.37;645113;216;31660;-74
2022/06/15 10:26:02;;;;;;;2.53;2.33;;;31.50;1.40;;;36.23;39.85;95465.52;646328;216;31529;-74
2022/06/15 10:28:47;;;;;;;3.75;2.08;;;32.30;1.40;;;38.33;39.33;95455.44;619552;226;32031;-74
2022/06/15 10:31:30;;;;;;;3.87;2.50;;;34.30;1.40;;;39.41;40.29;95452.71;647289;216;31685;-74
2022/06/15 10:35:52;;;;;;;2.62;2.25;;;34.60;1.40;;;39.14;39.32;95458.06;647310;216;31619;-74
2022/06/15 10:38:33;;;;;;;2.53;2.33;;;34.00;1.40;;;39.09;35.07;95458.47;645787;216;42776;-74
2022/06/15 10:44:05;;;;;;;4.40;2.60;;;33.70;1.40;;;37.90;35.44;95455.91;646793;216;31617;-74
2022/06/15 10:49:26;;;;;;;3.00;2.20;;;33.00;1.40;;;38.89;35.42;95456.91;646392;212;31593;-74
2022/06/15 10:52:26;;;;;;;2.60;2.40;;;33.60;1.40;;;36.48;36.21;95464.50;647431;216;31557;-74
2022/06/15 11:03:28;;;;;;;2.45;2.25;;;33.40;1.40;;;37.88;34.79;95453.89;647514;216;32114;-74
2022/06/15 11:06:10;;;;;;;2.28;2.08;;;32.90;1.40;;;37.91;36.24;95450.44;647448;216;31631;-74
2022/06/15 11:08:51;;;;;;;2.30;2.10;;;32.80;1.40;;;37.57;35.60;95451.19;619138;225;31863;-73
2022/06/15 11:11:33;;;;;;;4.90;2.42;;;32.60;1.40;;;34.84;38.33;95461.58;620050;226;32078;-74
2022/06/15 11:19:38;;;;;;;6.75;4.90;;;31.90;1.40;;;35.68;39.21;95456.45;646940;216;31566;-74
2022/06/15 11:22:20;;;;;;;8.05;6.97;;;32.10;1.40;;;37.62;36.96;95446.20;646492;212;31669;-74
2022/06/15 11:25:06;;;;;;;5.62;4.82;;;32.70;1.40;;;35.67;37.02;95454.52;645701;216;31566;-74
2022/06/15 11:27:49;;;;;;;2.70;2.40;;;30.70;1.40;;;34.78;39.79;95449.14;646875;216;31627;-75
2022/06/15 11:30:33;;;;;;;5.47;4.43;;;30.50;1.40;;;37.67;36.27;95439.31;647209;216;31678;-73
2022/06/15 11:36:00;;;;;;;2.78;2.20;;;32.40;1.40;;;37.32;36.55;95441.98;647302;216;31543;-74
2022/06/15 11:38:49;;;;;;;2.70;2.50;;;32.00;1.40;;;37.98;36.04;95443.97;646457;216;31556;-74
2022/06/15 11:41:47;;;;;;;2.40;2.20;;;32.00;1.40;;;39.71;35.44;95440.31;646351;216;32272;-74
2022/06/15 11:44:31;;;;;;;2.70;2.50;;;32.80;1.40;;;40.68;33.88;95436.81;647587;216;32146;-74
2022/06/15 11:47:17;;;;;;;3.35;2.95;;;33.60;1.40;;;37.93;35.92;95442.24;618654;226;32016;-74
2022/06/15 11:50:02;;;;;;;4.00;2.80;;;32.00;1.40;;;37.92;37.52;95440.98;646790;216;31870;-74
2022/06/15 11:52:52;;;;;;;5.10;2.40;;;32.10;1.40;;;39.46;34.02;95435.30;618182;226;31960;-74
2022/06/15 11:55:43;;;;;;;2.78;2.58;;;32.00;1.40;;;36.07;37.74;95446.34;646094;216;31966;-74
2022/06/15 11:58:42;;;;;;;4.62;2.47;;;31.10;1.40;;;39.16;34.95;95436.95;646562;216;31593;-74
2022/06/15 12:01:41;;;;;;;2.67;2.47;;;33.40;1.40;;;38.32;36.45;95432.93;646880;216;31571;-73
2022/06/15 12:07:25;;;;;;;2.85;2.65;;;32.00;1.40;;;37.81;37.79;95432.20;647856;216;31780;-74
2022/06/15 12:10:16;;;;;;;2.78;2.58;;;32.60;1.40;;;38.72;35.31;95426.85;646297;216;31915;-74
2022/06/15 12:12:58;;;;;;;2.78;2.20;;;32.70;1.40;;;39.92;34.71;95425.39;617972;226;31889;-74
2022/06/15 12:15:45;;;;;;;2.85;2.65;;;32.60;1.40;;;38.35;35.94;95426.03;646441;216;31604;-74
2022/06/15 12:18:48;;;;;;;3.30;2.12;;;32.30;1.40;;;38.12;36.29;95426.02;646804;216;31697;-75
2022/06/15 12:21:37;;;;;;;4.53;2.90;;;32.50;1.40;;;38.05;35.55;95421.93;647217;212;32097;-74
2022/06/15 12:24:17;;;;;;;3.65;2.58;;;32.20;1.40;;;38.01;36.28;95424.16;647561;216;31662;-74
2022/06/15 12:30:03;;;;;;;2.62;2.42;;;32.50;1.40;;;39.47;34.40;95422.66;646428;216;31719;-74
2022/06/15 12:32:44;;;;;;;2.75;2.50;;;32.90;1.40;;;37.84;35.68;95423.27;646474;216;31558;-74
2022/06/15 12:35:53;;;;;;;2.60;2.40;;;31.90;1.40;;;39.46;37.12;95422.23;619760;226;31934;-74
2022/06/15 12:38:58;;;;;;;2.72;2.40;;;32.50;1.40;;;40.84;35.83;95421.22;646699;216;31861;-74
2022/06/15 12:44:39;;;;;;;3.50;2.50;;;32.70;1.40;;;39.46;34.24;95422.21;646391;212;31573;-74
2022/06/15 12:47:23;;;;;;;2.60;2.20;;;32.40;1.40;;;41.21;34.27;95412.52;646653;216;31768;-74
2022/06/15 12:50:13;;;;;;;4.47;2.03;;;33.30;1.40;;;41.69;33.85;95414.31;646637;215;32242;-74
2022/06/15 12:52:59;;;;;;;2.50;1.90;;;33.50;1.40;;;37.03;34.58;95424.01;640860;216;32351;-74